Cochran, Georgia
Current Conditions -  °F | °C
As of 11:35 AM on Friday 24 Oct 2014 (Local Time) from KEZM Reporting Station
Clear Clear  
Wind Chill: 69°   Ceiling: Unl
Heat Index: 69°   Visibility: 10mi
Dew Point: 49°   Wind: 5mph
Humidity: 50%   Direction: 40°NE
Pressure: 30.1"   Gusts: NA
Location:  32.39°N, 83.35°W
Report Text: KEZM 241535Z AUTO 04004KT 10SM CLR 20/10 A3010 RMK AO2 T02030096
Loading
Personal Weather Stations






























Interactive Weather Map New forecast layout! Learn more

10-Day Weather Forecast

Advertisements
Track Severe Weather on mobile